sensor_id;sensor_type;location;lat;lon;timestamp;P1;durP1;ratioP1;P2;durP2;ratioP2
43509;SDS011;29105;57.764;40.952;2023-02-15T00:00:15;2.63;;;0.98;;
43509;SDS011;29105;57.764;40.952;2023-02-15T00:02:41;7.90;;;1.02;;
43509;SDS011;29105;57.764;40.952;2023-02-15T00:05:07;6.20;;;2.35;;
43509;SDS011;29105;57.764;40.952;2023-02-15T00:07:33;7.90;;;1.40;;
43509;SDS011;29105;57.764;40.952;2023-02-15T00:09:59;5.68;;;1.58;;
43509;SDS011;29105;57.764;40.952;2023-02-15T00:12:25;7.80;;;1.70;;
43509;SDS011;29105;57.764;40.952;2023-02-15T00:14:50;4.72;;;1.00;;
43509;SDS011;29105;57.764;40.952;2023-02-15T00:17:16;7.18;;;1.00;;
43509;SDS011;29105;57.764;40.952;2023-02-15T00:19:42;2.80;;;1.17;;
43509;SDS011;29105;57.764;40.952;2023-02-15T00:22:07;2.75;;;0.70;;
43509;SDS011;29105;57.764;40.952;2023-02-15T00:24:33;5.00;;;0.88;;
43509;SDS011;29105;57.764;40.952;2023-02-15T00:26:59;4.45;;;1.15;;
43509;SDS011;29105;57.764;40.952;2023-02-15T00:29:24;4.57;;;0.90;;
43509;SDS011;29105;57.764;40.952;2023-02-15T00:31:50;3.35;;;0.70;;
43509;SDS011;29105;57.764;40.952;2023-02-15T00:34:24;13.02;;;1.08;;
43509;SDS011;29105;57.764;40.952;2023-02-15T00:36:50;2.50;;;0.60;;
43509;SDS011;29105;57.764;40.952;2023-02-15T00:39:16;7.25;;;0.70;;
43509;SDS011;29105;57.764;40.952;2023-02-15T00:41:43;5.88;;;1.05;;
43509;SDS011;29105;57.764;40.952;2023-02-15T00:44:09;1.75;;;0.70;;
43509;SDS011;29105;57.764;40.952;2023-02-15T00:46:35;2.70;;;0.75;;
43509;SDS011;29105;57.764;40.952;2023-02-15T00:49:01;5.22;;;1.10;;
43509;SDS011;29105;57.764;40.952;2023-02-15T00:51:27;4.10;;;0.75;;
43509;SDS011;29105;57.764;40.952;2023-02-15T00:53:53;2.42;;;0.93;;
43509;SDS011;29105;57.764;40.952;2023-02-15T00:56:18;7.55;;;1.20;;
43509;SDS011;29105;57.764;40.952;2023-02-15T00:58:44;8.88;;;1.25;;
43509;SDS011;29105;57.764;40.952;2023-02-15T01:01:11;7.95;;;1.42;;
43509;SDS011;29105;57.764;40.952;2023-02-15T01:03:38;6.05;;;1.40;;
43509;SDS011;29105;57.764;40.952;2023-02-15T01:06:06;5.57;;;1.55;;
43509;SDS011;29105;57.764;40.952;2023-02-15T01:08:34;5.85;;;1.65;;
43509;SDS011;29105;57.764;40.952;2023-02-15T01:11:03;3.30;;;1.13;;
43509;SDS011;29105;57.764;40.952;2023-02-15T01:13:34;4.57;;;0.85;;
43509;SDS011;29105;57.764;40.952;2023-02-15T01:16:00;2.33;;;0.93;;
43509;SDS011;29105;57.764;40.952;2023-02-15T01:18:25;3.72;;;1.33;;
43509;SDS011;29105;57.764;40.952;2023-02-15T01:20:51;5.15;;;1.15;;
43509;SDS011;29105;57.764;40.952;2023-02-15T01:23:17;5.30;;;1.17;;
43509;SDS011;29105;57.764;40.952;2023-02-15T01:25:43;2.28;;;0.70;;
43509;SDS011;29105;57.764;40.952;2023-02-15T01:28:09;3.05;;;0.75;;
43509;SDS011;29105;57.764;40.952;2023-02-15T01:30:35;4.72;;;0.98;;
43509;SDS011;29105;57.764;40.952;2023-02-15T01:33:00;2.08;;;0.90;;
43509;SDS011;29105;57.764;40.952;2023-02-15T01:35:26;4.22;;;0.90;;
43509;SDS011;29105;57.764;40.952;2023-02-15T01:37:53;6.35;;;0.70;;
43509;SDS011;29105;57.764;40.952;2023-02-15T01:40:19;3.92;;;0.95;;
43509;SDS011;29105;57.764;40.952;2023-02-15T01:42:45;5.43;;;0.90;;
43509;SDS011;29105;57.764;40.952;2023-02-15T01:47:56;5.53;;;1.20;;
43509;SDS011;29105;57.764;40.952;2023-02-15T01:53:02;4.25;;;0.63;;
43509;SDS011;29105;57.764;40.952;2023-02-15T01:55:43;3.70;;;0.88;;
43509;SDS011;29105;57.764;40.952;2023-02-15T01:58:43;3.05;;;0.70;;
43509;SDS011;29105;57.764;40.952;2023-02-15T02:01:08;5.00;;;0.88;;
43509;SDS011;29105;57.764;40.952;2023-02-15T02:06:09;5.65;;;2.03;;
43509;SDS011;29105;57.764;40.952;2023-02-15T02:08:35;4.40;;;0.75;;
43509;SDS011;29105;57.764;40.952;2023-02-15T02:11:01;5.72;;;1.08;;
43509;SDS011;29105;57.764;40.952;2023-02-15T02:13:27;2.00;;;1.05;;
43509;SDS011;29105;57.764;40.952;2023-02-15T02:16:15;4.07;;;1.30;;
43509;SDS011;29105;57.764;40.952;2023-02-15T02:22:23;7.03;;;1.05;;
43509;SDS011;29105;57.764;40.952;2023-02-15T02:28:33;3.03;;;0.77;;
43509;SDS011;29105;57.764;40.952;2023-02-15T02:49:28;5.50;;;1.73;;
43509;SDS011;29105;57.764;40.952;2023-02-15T02:52:02;8.50;;;0.90;;
43509;SDS011;29105;57.764;40.952;2023-02-15T02:54:33;3.13;;;1.00;;
43509;SDS011;29105;57.764;40.952;2023-02-15T02:57:00;1.63;;;0.40;;
43509;SDS011;29105;57.764;40.952;2023-02-15T02:59:30;2.53;;;0.77;;
43509;SDS011;29105;57.764;40.952;2023-02-15T03:04:25;8.60;;;0.88;;
43509;SDS011;29105;57.764;40.952;2023-02-15T03:06:55;2.95;;;0.60;;
43509;SDS011;29105;57.764;40.952;2023-02-15T03:09:25;6.18;;;0.75;;
43509;SDS011;29105;57.764;40.952;2023-02-15T03:12:00;7.15;;;0.70;;
43509;SDS011;29105;57.764;40.952;2023-02-15T03:14:27;2.10;;;0.77;;
43509;SDS011;29105;57.764;40.952;2023-02-15T03:16:53;1.17;;;0.47;;
43509;SDS011;29105;57.764;40.952;2023-02-15T03:19:27;2.28;;;0.60;;
43509;SDS011;29105;57.764;40.952;2023-02-15T03:21:59;2.55;;;0.60;;
43509;SDS011;29105;57.764;40.952;2023-02-15T03:27:36;3.58;;;0.40;;
43509;SDS011;29105;57.764;40.952;2023-02-15T03:30:04;4.72;;;0.35;;
43509;SDS011;29105;57.764;40.952;2023-02-15T03:32:31;1.83;;;0.50;;
43509;SDS011;29105;57.764;40.952;2023-02-15T03:34:58;2.00;;;0.75;;
43509;SDS011;29105;57.764;40.952;2023-02-15T03:37:35;3.38;;;0.40;;
43509;SDS011;29105;57.764;40.952;2023-02-15T03:40:07;6.50;;;0.82;;
43509;SDS011;29105;57.764;40.952;2023-02-15T03:43:15;0.98;;;0.35;;
43509;SDS011;29105;57.764;40.952;2023-02-15T03:45:45;4.05;;;0.57;;
43509;SDS011;29105;57.764;40.952;2023-02-15T03:48:40;1.42;;;0.80;;
43509;SDS011;29105;57.764;40.952;2023-02-15T03:51:11;2.38;;;0.47;;
43509;SDS011;29105;57.764;40.952;2023-02-15T03:53:58;1.45;;;0.85;;
43509;SDS011;29105;57.764;40.952;2023-02-15T03:56:27;1.45;;;0.52;;
43509;SDS011;29105;57.764;40.952;2023-02-15T03:58:53;0.45;;;0.20;;
43509;SDS011;29105;57.764;40.952;2023-02-15T04:01:38;2.13;;;0.47;;
43509;SDS011;29105;57.764;40.952;2023-02-15T04:06:52;0.40;;;0.20;;
43509;SDS011;29105;57.764;40.952;2023-02-15T04:09:17;1.63;;;0.57;;
43509;SDS011;29105;57.764;40.952;2023-02-15T04:12:02;1.90;;;0.80;;
43509;SDS011;29105;57.764;40.952;2023-02-15T04:14:29;3.03;;;0.65;;
43509;SDS011;29105;57.764;40.952;2023-02-15T04:17:13;3.67;;;0.30;;
43509;SDS011;29105;57.764;40.952;2023-02-15T04:19:39;1.27;;;0.28;;
43509;SDS011;29105;57.764;40.952;2023-02-15T04:22:23;1.30;;;0.40;;
43509;SDS011;29105;57.764;40.952;2023-02-15T04:25:07;1.75;;;0.73;;
43509;SDS011;29105;57.764;40.952;2023-02-15T04:27:39;2.00;;;0.63;;
43509;SDS011;29105;57.764;40.952;2023-02-15T04:30:07;17.52;;;8.32;;
43509;SDS011;29105;57.764;40.952;2023-02-15T04:32:34;1.80;;;0.70;;
43509;SDS011;29105;57.764;40.952;2023-02-15T04:35:01;1.67;;;0.70;;
43509;SDS011;29105;57.764;40.952;2023-02-15T04:37:29;2.58;;;0.50;;
43509;SDS011;29105;57.764;40.952;2023-02-15T04:39:54;0.68;;;0.35;;
43509;SDS011;29105;57.764;40.952;2023-02-15T04:42:20;0.50;;;0.30;;
43509;SDS011;29105;57.764;40.952;2023-02-15T04:44:46;0.25;;;0.20;;
43509;SDS011;29105;57.764;40.952;2023-02-15T04:47:12;0.60;;;0.30;;
43509;SDS011;29105;57.764;40.952;2023-02-15T04:49:37;1.15;;;0.40;;
43509;SDS011;29105;57.764;40.952;2023-02-15T04:52:03;0.40;;;0.30;;
43509;SDS011;29105;57.764;40.952;2023-02-15T04:54:29;1.27;;;0.47;;
43509;SDS011;29105;57.764;40.952;2023-02-15T04:56:55;8.27;;;1.20;;
43509;SDS011;29105;57.764;40.952;2023-02-15T04:59:20;1.98;;;0.90;;
43509;SDS011;29105;57.764;40.952;2023-02-15T05:01:46;0.63;;;0.30;;
43509;SDS011;29105;57.764;40.952;2023-02-15T05:04:11;5.35;;;1.23;;
43509;SDS011;29105;57.764;40.952;2023-02-15T05:06:37;4.75;;;2.03;;
43509;SDS011;29105;57.764;40.952;2023-02-15T05:09:03;3.38;;;1.73;;
43509;SDS011;29105;57.764;40.952;2023-02-15T05:11:28;3.95;;;2.45;;
43509;SDS011;29105;57.764;40.952;2023-02-15T05:13:54;1.75;;;1.10;;
43509;SDS011;29105;57.764;40.952;2023-02-15T05:16:20;1.38;;;0.55;;
43509;SDS011;29105;57.764;40.952;2023-02-15T05:18:45;2.53;;;0.75;;
43509;SDS011;29105;57.764;40.952;2023-02-15T05:21:11;2.47;;;0.43;;
43509;SDS011;29105;57.764;40.952;2023-02-15T05:23:38;1.30;;;1.10;;
43509;SDS011;29105;57.764;40.952;2023-02-15T05:26:04;0.32;;;0.30;;
43509;SDS011;29105;57.764;40.952;2023-02-15T05:28:48;3.70;;;0.80;;
43509;SDS011;29105;57.764;40.952;2023-02-15T05:31:15;6.75;;;2.17;;
43509;SDS011;29105;57.764;40.952;2023-02-15T05:33:42;4.05;;;0.80;;
43509;SDS011;29105;57.764;40.952;2023-02-15T05:36:08;2.92;;;0.80;;
43509;SDS011;29105;57.764;40.952;2023-02-15T05:38:34;4.15;;;1.00;;
43509;SDS011;29105;57.764;40.952;2023-02-15T05:41:07;2.58;;;0.85;;
43509;SDS011;29105;57.764;40.952;2023-02-15T05:43:33;2.85;;;1.30;;
43509;SDS011;29105;57.764;40.952;2023-02-15T05:46:00;2.47;;;1.10;;
43509;SDS011;29105;57.764;40.952;2023-02-15T05:48:26;3.55;;;0.90;;
43509;SDS011;29105;57.764;40.952;2023-02-15T05:53:25;1.48;;;0.80;;
43509;SDS011;29105;57.764;40.952;2023-02-15T05:55:51;2.20;;;0.93;;
43509;SDS011;29105;57.764;40.952;2023-02-15T05:58:19;3.35;;;1.40;;
43509;SDS011;29105;57.764;40.952;2023-02-15T06:00:45;5.85;;;1.40;;
43509;SDS011;29105;57.764;40.952;2023-02-15T06:03:10;4.05;;;1.02;;
43509;SDS011;29105;57.764;40.952;2023-02-15T06:05:36;4.78;;;1.30;;
43509;SDS011;29105;57.764;40.952;2023-02-15T06:08:02;4.30;;;1.88;;
43509;SDS011;29105;57.764;40.952;2023-02-15T06:10:28;4.68;;;1.98;;
43509;SDS011;29105;57.764;40.952;2023-02-15T06:12:53;6.35;;;1.15;;
43509;SDS011;29105;57.764;40.952;2023-02-15T06:15:19;5.78;;;2.45;;
43509;SDS011;29105;57.764;40.952;2023-02-15T06:17:44;3.28;;;1.20;;
43509;SDS011;29105;57.764;40.952;2023-02-15T06:20:10;4.43;;;1.13;;
43509;SDS011;29105;57.764;40.952;2023-02-15T06:22:36;1.58;;;0.80;;
43509;SDS011;29105;57.764;40.952;2023-02-15T06:25:02;4.45;;;1.85;;
43509;SDS011;29105;57.764;40.952;2023-02-15T06:27:28;11.88;;;4.65;;
43509;SDS011;29105;57.764;40.952;2023-02-15T06:29:54;4.70;;;1.95;;
43509;SDS011;29105;57.764;40.952;2023-02-15T06:32:20;7.47;;;2.17;;
43509;SDS011;29105;57.764;40.952;2023-02-15T06:34:45;4.32;;;1.45;;
43509;SDS011;29105;57.764;40.952;2023-02-15T06:37:11;1.98;;;0.85;;
43509;SDS011;29105;57.764;40.952;2023-02-15T06:39:37;4.38;;;1.17;;
43509;SDS011;29105;57.764;40.952;2023-02-15T06:42:02;2.30;;;0.90;;
43509;SDS011;29105;57.764;40.952;2023-02-15T06:44:28;2.25;;;1.25;;
43509;SDS011;29105;57.764;40.952;2023-02-15T06:46:53;2.95;;;1.17;;
43509;SDS011;29105;57.764;40.952;2023-02-15T06:49:19;4.45;;;1.48;;
43509;SDS011;29105;57.764;40.952;2023-02-15T06:51:45;3.72;;;0.70;;
43509;SDS011;29105;57.764;40.952;2023-02-15T06:54:10;2.13;;;0.80;;
43509;SDS011;29105;57.764;40.952;2023-02-15T06:56:36;2.95;;;1.45;;
43509;SDS011;29105;57.764;40.952;2023-02-15T06:59:02;2.33;;;0.70;;
43509;SDS011;29105;57.764;40.952;2023-02-15T07:01:28;2.10;;;0.77;;
43509;SDS011;29105;57.764;40.952;2023-02-15T07:03:53;2.42;;;1.02;;
43509;SDS011;29105;57.764;40.952;2023-02-15T07:06:19;1.92;;;0.80;;
43509;SDS011;29105;57.764;40.952;2023-02-15T07:08:45;2.85;;;1.70;;
43509;SDS011;29105;57.764;40.952;2023-02-15T07:11:10;2.30;;;1.38;;
43509;SDS011;29105;57.764;40.952;2023-02-15T07:13:54;3.70;;;1.30;;
43509;SDS011;29105;57.764;40.952;2023-02-15T07:16:20;2.30;;;0.70;;
43509;SDS011;29105;57.764;40.952;2023-02-15T07:18:46;4.07;;;1.40;;
43509;SDS011;29105;57.764;40.952;2023-02-15T07:21:12;3.13;;;1.08;;
43509;SDS011;29105;57.764;40.952;2023-02-15T07:23:38;8.27;;;1.25;;
43509;SDS011;29105;57.764;40.952;2023-02-15T07:26:05;1.13;;;0.63;;
43509;SDS011;29105;57.764;40.952;2023-02-15T07:28:31;2.40;;;0.82;;
43509;SDS011;29105;57.764;40.952;2023-02-15T07:30:57;1.00;;;0.80;;
43509;SDS011;29105;57.764;40.952;2023-02-15T07:33:23;3.53;;;1.30;;
43509;SDS011;29105;57.764;40.952;2023-02-15T07:35:50;1.58;;;0.95;;
43509;SDS011;29105;57.764;40.952;2023-02-15T07:38:17;2.15;;;0.73;;
43509;SDS011;29105;57.764;40.952;2023-02-15T07:40:43;1.13;;;0.68;;
43509;SDS011;29105;57.764;40.952;2023-02-15T07:43:10;1.95;;;0.70;;
43509;SDS011;29105;57.764;40.952;2023-02-15T07:45:36;3.15;;;1.08;;
43509;SDS011;29105;57.764;40.952;2023-02-15T07:48:02;1.80;;;0.70;;
43509;SDS011;29105;57.764;40.952;2023-02-15T07:50:29;2.92;;;1.08;;
43509;SDS011;29105;57.764;40.952;2023-02-15T07:52:55;2.13;;;0.80;;
43509;SDS011;29105;57.764;40.952;2023-02-15T07:55:20;2.20;;;0.80;;
43509;SDS011;29105;57.764;40.952;2023-02-15T07:57:47;1.23;;;0.52;;
43509;SDS011;29105;57.764;40.952;2023-02-15T08:00:15;2.20;;;0.80;;
43509;SDS011;29105;57.764;40.952;2023-02-15T08:02:42;1.98;;;0.65;;
43509;SDS011;29105;57.764;40.952;2023-02-15T08:05:08;1.80;;;0.55;;
43509;SDS011;29105;57.764;40.952;2023-02-15T08:07:33;0.90;;;0.50;;
43509;SDS011;29105;57.764;40.952;2023-02-15T08:09:59;1.13;;;0.50;;
43509;SDS011;29105;57.764;40.952;2023-02-15T08:12:28;1.20;;;0.60;;
43509;SDS011;29105;57.764;40.952;2023-02-15T08:14:54;3.40;;;0.70;;
43509;SDS011;29105;57.764;40.952;2023-02-15T08:17:20;1.45;;;0.70;;
43509;SDS011;29105;57.764;40.952;2023-02-15T08:19:45;1.20;;;0.43;;
43509;SDS011;29105;57.764;40.952;2023-02-15T08:22:12;4.57;;;0.60;;
43509;SDS011;29105;57.764;40.952;2023-02-15T08:24:39;5.30;;;0.60;;
43509;SDS011;29105;57.764;40.952;2023-02-15T08:27:06;1.67;;;0.60;;
43509;SDS011;29105;57.764;40.952;2023-02-15T08:29:33;2.20;;;0.75;;
43509;SDS011;29105;57.764;40.952;2023-02-15T08:32:02;0.95;;;0.40;;
43509;SDS011;29105;57.764;40.952;2023-02-15T08:34:31;1.35;;;0.65;;
43509;SDS011;29105;57.764;40.952;2023-02-15T08:36:57;2.92;;;1.10;;
43509;SDS011;29105;57.764;40.952;2023-02-15T08:39:23;2.05;;;0.90;;
43509;SDS011;29105;57.764;40.952;2023-02-15T08:41:49;3.88;;;0.70;;
43509;SDS011;29105;57.764;40.952;2023-02-15T08:44:15;2.50;;;0.90;;
43509;SDS011;29105;57.764;40.952;2023-02-15T08:46:43;1.75;;;0.68;;
43509;SDS011;29105;57.764;40.952;2023-02-15T08:49:11;1.63;;;0.45;;
43509;SDS011;29105;57.764;40.952;2023-02-15T08:51:39;2.13;;;1.10;;
43509;SDS011;29105;57.764;40.952;2023-02-15T08:54:05;2.63;;;0.88;;
43509;SDS011;29105;57.764;40.952;2023-02-15T08:56:36;1.77;;;0.75;;
43509;SDS011;29105;57.764;40.952;2023-02-15T08:59:04;1.50;;;0.73;;
43509;SDS011;29105;57.764;40.952;2023-02-15T09:01:31;1.63;;;0.70;;
43509;SDS011;29105;57.764;40.952;2023-02-15T09:03:59;2.50;;;0.90;;
43509;SDS011;29105;57.764;40.952;2023-02-15T09:06:26;1.70;;;0.70;;
43509;SDS011;29105;57.764;40.952;2023-02-15T09:08:53;2.35;;;0.90;;
43509;SDS011;29105;57.764;40.952;2023-02-15T09:11:20;1.90;;;1.23;;
43509;SDS011;29105;57.764;40.952;2023-02-15T09:13:49;2.40;;;0.95;;
43509;SDS011;29105;57.764;40.952;2023-02-15T09:16:18;2.55;;;0.60;;
43509;SDS011;29105;57.764;40.952;2023-02-15T09:18:45;3.88;;;0.90;;
43509;SDS011;29105;57.764;40.952;2023-02-15T09:21:18;1.88;;;0.77;;
43509;SDS011;29105;57.764;40.952;2023-02-15T09:23:46;2.10;;;0.60;;
43509;SDS011;29105;57.764;40.952;2023-02-15T09:26:14;3.10;;;1.35;;
43509;SDS011;29105;57.764;40.952;2023-02-15T09:28:44;2.15;;;0.93;;
43509;SDS011;29105;57.764;40.952;2023-02-15T09:31:11;2.28;;;1.00;;
43509;SDS011;29105;57.764;40.952;2023-02-15T09:33:41;2.38;;;1.33;;
43509;SDS011;29105;57.764;40.952;2023-02-15T09:38:39;1.55;;;0.90;;
43509;SDS011;29105;57.764;40.952;2023-02-15T09:49:53;3.58;;;1.02;;
43509;SDS011;29105;57.764;40.952;2023-02-15T09:55:52;1.80;;;1.08;;
43509;SDS011;29105;57.764;40.952;2023-02-15T10:01:15;2.97;;;1.45;;
43509;SDS011;29105;57.764;40.952;2023-02-15T10:09:42;5.28;;;1.48;;
43509;SDS011;29105;57.764;40.952;2023-02-15T10:26:25;1.75;;;0.90;;
43509;SDS011;29105;57.764;40.952;2023-02-15T10:29:00;3.42;;;1.45;;
43509;SDS011;29105;57.764;40.952;2023-02-15T10:45:40;3.45;;;1.42;;
43509;SDS011;29105;57.764;40.952;2023-02-15T10:51:03;1.88;;;1.23;;
43509;SDS011;29105;57.764;40.952;2023-02-15T10:56:13;2.25;;;1.33;;
43509;SDS011;29105;57.764;40.952;2023-02-15T11:01:32;3.97;;;1.80;;
43509;SDS011;29105;57.764;40.952;2023-02-15T11:07:15;5.43;;;1.48;;
43509;SDS011;29105;57.764;40.952;2023-02-15T11:10:01;16.35;;;8.60;;
43509;SDS011;29105;57.764;40.952;2023-02-15T11:12:30;4.10;;;2.20;;
43509;SDS011;29105;57.764;40.952;2023-02-15T11:17:35;3.33;;;1.50;;
43509;SDS011;29105;57.764;40.952;2023-02-15T11:20:23;2.58;;;1.17;;
43509;SDS011;29105;57.764;40.952;2023-02-15T11:22:52;2.53;;;1.27;;
43509;SDS011;29105;57.764;40.952;2023-02-15T11:27:58;3.50;;;1.70;;
43509;SDS011;29105;57.764;40.952;2023-02-15T11:30:38;3.40;;;1.25;;
43509;SDS011;29105;57.764;40.952;2023-02-15T11:33:12;4.40;;;1.95;;
43509;SDS011;29105;57.764;40.952;2023-02-15T11:35:53;2.90;;;1.55;;
43509;SDS011;29105;57.764;40.952;2023-02-15T11:38:27;2.03;;;0.82;;
43509;SDS011;29105;57.764;40.952;2023-02-15T11:46:04;7.65;;;3.25;;
43509;SDS011;29105;57.764;40.952;2023-02-15T11:48:31;4.90;;;2.10;;
43509;SDS011;29105;57.764;40.952;2023-02-15T11:50:57;6.18;;;2.58;;
43509;SDS011;29105;57.764;40.952;2023-02-15T11:53:24;11.90;;;4.22;;
43509;SDS011;29105;57.764;40.952;2023-02-15T11:55:53;4.80;;;2.10;;
43509;SDS011;29105;57.764;40.952;2023-02-15T12:00:54;5.50;;;3.33;;
43509;SDS011;29105;57.764;40.952;2023-02-15T12:03:45;3.65;;;1.92;;
43509;SDS011;29105;57.764;40.952;2023-02-15T12:06:15;4.55;;;2.10;;
43509;SDS011;29105;57.764;40.952;2023-02-15T12:08:48;3.83;;;1.42;;
43509;SDS011;29105;57.764;40.952;2023-02-15T12:11:37;6.18;;;1.67;;
43509;SDS011;29105;57.764;40.952;2023-02-15T12:16:41;9.43;;;3.17;;
43509;SDS011;29105;57.764;40.952;2023-02-15T12:19:50;6.82;;;3.28;;
43509;SDS011;29105;57.764;40.952;2023-02-15T12:22:11;6.45;;;2.55;;
43509;SDS011;29105;57.764;40.952;2023-02-15T12:24:46;2.35;;;1.48;;
43509;SDS011;29105;57.764;40.952;2023-02-15T12:29:43;5.65;;;2.10;;
43509;SDS011;29105;57.764;40.952;2023-02-15T12:32:19;5.63;;;2.88;;
43509;SDS011;29105;57.764;40.952;2023-02-15T12:34:52;28.00;;;8.15;;
43509;SDS011;29105;57.764;40.952;2023-02-15T12:37:23;10.40;;;3.92;;
43509;SDS011;29105;57.764;40.952;2023-02-15T12:39:52;4.90;;;2.85;;
43509;SDS011;29105;57.764;40.952;2023-02-15T12:42:20;5.63;;;3.13;;
43509;SDS011;29105;57.764;40.952;2023-02-15T12:45:19;3.60;;;1.85;;
43509;SDS011;29105;57.764;40.952;2023-02-15T12:48:07;3.40;;;2.25;;
43509;SDS011;29105;57.764;40.952;2023-02-15T12:50:33;5.18;;;2.88;;
43509;SDS011;29105;57.764;40.952;2023-02-15T12:53:13;8.98;;;3.92;;
43509;SDS011;29105;57.764;40.952;2023-02-15T12:55:51;4.28;;;2.42;;
43509;SDS011;29105;57.764;40.952;2023-02-15T12:58:25;4.70;;;2.28;;
43509;SDS011;29105;57.764;40.952;2023-02-15T13:06:29;5.05;;;2.38;;
43509;SDS011;29105;57.764;40.952;2023-02-15T13:08:58;7.55;;;3.00;;
43509;SDS011;29105;57.764;40.952;2023-02-15T13:11:31;5.00;;;2.53;;
43509;SDS011;29105;57.764;40.952;2023-02-15T13:14:21;12.82;;;5.72;;
43509;SDS011;29105;57.764;40.952;2023-02-15T13:16:50;11.85;;;4.40;;
43509;SDS011;29105;57.764;40.952;2023-02-15T13:22:05;14.27;;;5.20;;
43509;SDS011;29105;57.764;40.952;2023-02-15T13:24:34;24.13;;;9.13;;
43509;SDS011;29105;57.764;40.952;2023-02-15T13:27:02;105.55;;;33.03;;
43509;SDS011;29105;57.764;40.952;2023-02-15T13:29:33;68.80;;;22.60;;
43509;SDS011;29105;57.764;40.952;2023-02-15T13:34:45;9.65;;;4.00;;
43509;SDS011;29105;57.764;40.952;2023-02-15T13:39:51;9.73;;;4.97;;
43509;SDS011;29105;57.764;40.952;2023-02-15T13:42:40;6.32;;;3.75;;
43509;SDS011;29105;57.764;40.952;2023-02-15T13:51:07;2.67;;;1.38;;
43509;SDS011;29105;57.764;40.952;2023-02-15T13:56:27;2.92;;;1.25;;
43509;SDS011;29105;57.764;40.952;2023-02-15T13:59:52;4.28;;;1.20;;
43509;SDS011;29105;57.764;40.952;2023-02-15T14:13:36;3.40;;;1.60;;
43509;SDS011;29105;57.764;40.952;2023-02-15T14:16:27;5.72;;;2.20;;
43509;SDS011;29105;57.764;40.952;2023-02-15T14:23:59;4.53;;;2.30;;
43509;SDS011;29105;57.764;40.952;2023-02-15T14:26:39;4.95;;;2.33;;
43509;SDS011;29105;57.764;40.952;2023-02-15T14:29:16;5.40;;;2.40;;
43509;SDS011;29105;57.764;40.952;2023-02-15T14:32:11;4.75;;;2.60;;
43509;SDS011;29105;57.764;40.952;2023-02-15T14:34:44;9.18;;;4.38;;
43509;SDS011;29105;57.764;40.952;2023-02-15T14:37:15;7.43;;;3.97;;
43509;SDS011;29105;57.764;40.952;2023-02-15T14:40:03;11.50;;;5.20;;
43509;SDS011;29105;57.764;40.952;2023-02-15T14:47:57;7.93;;;3.97;;
43509;SDS011;29105;57.764;40.952;2023-02-15T14:53:15;7.43;;;3.03;;
43509;SDS011;29105;57.764;40.952;2023-02-15T15:01:29;4.78;;;1.83;;
43509;SDS011;29105;57.764;40.952;2023-02-15T15:04:05;1.50;;;1.10;;
43509;SDS011;29105;57.764;40.952;2023-02-15T15:06:34;5.45;;;1.77;;
43509;SDS011;29105;57.764;40.952;2023-02-15T15:14:07;3.30;;;2.30;;
43509;SDS011;29105;57.764;40.952;2023-02-15T15:19:04;4.22;;;2.05;;
43509;SDS011;29105;57.764;40.952;2023-02-15T15:35:26;3.88;;;1.92;;
43509;SDS011;29105;57.764;40.952;2023-02-15T15:48:45;6.82;;;3.42;;
43509;SDS011;29105;57.764;40.952;2023-02-15T15:53:43;5.70;;;3.05;;
43509;SDS011;29105;57.764;40.952;2023-02-15T15:56:15;7.55;;;3.88;;
43509;SDS011;29105;57.764;40.952;2023-02-15T15:58:50;5.22;;;3.58;;
43509;SDS011;29105;57.764;40.952;2023-02-15T16:01:24;6.68;;;2.88;;
43509;SDS011;29105;57.764;40.952;2023-02-15T16:03:55;7.05;;;3.85;;
43509;SDS011;29105;57.764;40.952;2023-02-15T16:06:34;4.95;;;2.63;;
43509;SDS011;29105;57.764;40.952;2023-02-15T16:11:45;5.47;;;2.20;;
43509;SDS011;29105;57.764;40.952;2023-02-15T16:14:13;6.22;;;2.20;;
43509;SDS011;29105;57.764;40.952;2023-02-15T16:16:45;5.15;;;1.65;;
43509;SDS011;29105;57.764;40.952;2023-02-15T16:19:18;3.85;;;1.83;;
43509;SDS011;29105;57.764;40.952;2023-02-15T16:21:59;4.15;;;1.80;;
43509;SDS011;29105;57.764;40.952;2023-02-15T16:24:31;3.25;;;1.52;;
43509;SDS011;29105;57.764;40.952;2023-02-15T16:29:33;3.88;;;2.42;;
43509;SDS011;29105;57.764;40.952;2023-02-15T16:34:49;4.10;;;3.15;;
43509;SDS011;29105;57.764;40.952;2023-02-15T16:37:23;10.68;;;9.60;;
43509;SDS011;29105;57.764;40.952;2023-02-15T16:39:53;6.00;;;5.10;;
43509;SDS011;29105;57.764;40.952;2023-02-15T16:42:19;4.57;;;3.50;;
43509;SDS011;29105;57.764;40.952;2023-02-15T16:44:46;3.13;;;2.08;;
43509;SDS011;29105;57.764;40.952;2023-02-15T16:47:18;4.70;;;2.42;;
43509;SDS011;29105;57.764;40.952;2023-02-15T16:49:48;3.22;;;1.15;;
43509;SDS011;29105;57.764;40.952;2023-02-15T16:52:19;5.43;;;1.30;;
43509;SDS011;29105;57.764;40.952;2023-02-15T16:54:52;3.00;;;1.20;;
43509;SDS011;29105;57.764;40.952;2023-02-15T16:57:21;3.88;;;1.50;;
43509;SDS011;29105;57.764;40.952;2023-02-15T16:59:49;6.78;;;3.85;;
43509;SDS011;29105;57.764;40.952;2023-02-15T17:02:18;6.15;;;5.40;;
43509;SDS011;29105;57.764;40.952;2023-02-15T17:05:00;2.97;;;2.00;;
43509;SDS011;29105;57.764;40.952;2023-02-15T17:07:29;3.15;;;1.95;;
43509;SDS011;29105;57.764;40.952;2023-02-15T17:09:56;2.40;;;1.45;;
43509;SDS011;29105;57.764;40.952;2023-02-15T17:15:26;2.83;;;1.73;;
43509;SDS011;29105;57.764;40.952;2023-02-15T17:18:21;5.68;;;1.70;;
43509;SDS011;29105;57.764;40.952;2023-02-15T17:20:46;1.80;;;1.30;;
43509;SDS011;29105;57.764;40.952;2023-02-15T17:25:50;3.75;;;2.05;;
43509;SDS011;29105;57.764;40.952;2023-02-15T17:28:17;4.05;;;2.25;;
43509;SDS011;29105;57.764;40.952;2023-02-15T17:30:45;4.47;;;1.73;;
43509;SDS011;29105;57.764;40.952;2023-02-15T17:33:21;5.00;;;3.05;;
43509;SDS011;29105;57.764;40.952;2023-02-15T17:36:12;3.97;;;2.00;;
43509;SDS011;29105;57.764;40.952;2023-02-15T17:43:49;2.80;;;1.73;;
43509;SDS011;29105;57.764;40.952;2023-02-15T17:46:14;3.55;;;1.65;;
43509;SDS011;29105;57.764;40.952;2023-02-15T17:48:46;2.10;;;0.98;;
43509;SDS011;29105;57.764;40.952;2023-02-15T17:51:13;4.03;;;1.52;;
43509;SDS011;29105;57.764;40.952;2023-02-15T17:53:40;3.05;;;1.30;;
43509;SDS011;29105;57.764;40.952;2023-02-15T17:56:27;5.47;;;3.80;;
43509;SDS011;29105;57.764;40.952;2023-02-15T17:58:52;3.85;;;2.40;;
43509;SDS011;29105;57.764;40.952;2023-02-15T18:01:18;2.63;;;2.03;;
43509;SDS011;29105;57.764;40.952;2023-02-15T18:04:03;5.43;;;2.53;;
43509;SDS011;29105;57.764;40.952;2023-02-15T18:06:48;5.15;;;3.17;;
43509;SDS011;29105;57.764;40.952;2023-02-15T18:09:34;3.95;;;1.70;;
43509;SDS011;29105;57.764;40.952;2023-02-15T18:14:51;3.92;;;1.58;;
43509;SDS011;29105;57.764;40.952;2023-02-15T18:17:25;3.25;;;2.28;;
43509;SDS011;29105;57.764;40.952;2023-02-15T18:19:53;6.22;;;3.25;;
43509;SDS011;29105;57.764;40.952;2023-02-15T18:22:19;7.00;;;3.67;;
43509;SDS011;29105;57.764;40.952;2023-02-15T18:24:45;6.15;;;3.75;;
43509;SDS011;29105;57.764;40.952;2023-02-15T18:27:12;6.97;;;4.22;;
43509;SDS011;29105;57.764;40.952;2023-02-15T18:29:38;4.97;;;2.35;;
43509;SDS011;29105;57.764;40.952;2023-02-15T18:32:18;2.75;;;1.15;;
43509;SDS011;29105;57.764;40.952;2023-02-15T18:34:47;4.55;;;1.27;;
43509;SDS011;29105;57.764;40.952;2023-02-15T18:37:20;1.95;;;1.10;;
43509;SDS011;29105;57.764;40.952;2023-02-15T18:39:46;2.92;;;2.10;;
43509;SDS011;29105;57.764;40.952;2023-02-15T18:42:20;2.33;;;1.50;;
43509;SDS011;29105;57.764;40.952;2023-02-15T18:44:57;11.20;;;9.70;;